Time;durP1;ratioP1;P1;durP2;ratioP2;P2;SDS_P1;SDS_P2;PMS_P1;PMS_P2;Temp;Humidity;BMP_temperature;BMP_pressure;BME280_temperature;BME280_humidity;BME280_pressure;Samples;Min_cycle;Max_cycle;Signal;HPM_P1;HPM_P2
2022/05/17 00:00:29;;;;;;;;;;;;;;;21.74;26.96;98070.03;5034826;28;962;-75
2022/05/17 00:02:57;;;;;;;;;;;;;;;21.54;27.47;98077.84;5034666;28;1002;-75
2022/05/17 00:05:23;;;;;;;;;;;;;;;21.29;27.93;98062.22;5034720;28;974;-76
2022/05/17 00:07:49;;;;;;;;;;;;;;;21.37;27.46;98067.75;5034406;28;1902;-75
2022/05/17 00:10:14;;;;;;;;;;;;;;;21.69;27.17;98067.72;5034435;28;984;-76
2022/05/17 00:12:40;;;;;;;;;;;;;;;22.03;26.76;98064.41;5034346;28;958;-75
2022/05/17 00:15:05;;;;;;;;;;;;;;;21.93;26.80;98059.03;5034746;28;1003;-75
2022/05/17 00:17:31;;;;;;;;;;;;;;;21.63;27.24;98063.84;5034598;28;963;-76
2022/05/17 00:19:56;;;;;;;;;;;;;;;21.41;27.51;98062.81;5018127;28;932;-76
2022/05/17 00:22:22;;;;;;;;;;;;;;;21.29;27.50;98064.25;5034124;28;992;-75
2022/05/17 00:24:47;;;;;;;;;;;;;;;21.32;27.74;98055.72;5033999;28;970;-76
2022/05/17 00:27:12;;;;;;;;;;;;;;;21.94;26.74;98049.28;5017890;28;996;-75
2022/05/17 00:29:38;;;;;;;;;;;;;;;22.12;26.30;98054.47;5035799;28;1975;-75
2022/05/17 00:32:04;;;;;;;;;;;;;;;21.61;27.30;98054.22;5036527;28;935;-75
2022/05/17 00:34:29;;;;;;;;;;;;;;;21.49;27.21;98058.53;5017923;28;1052;-76
2022/05/17 00:36:55;;;;;;;;;;;;;;;21.51;27.52;98047.59;5035352;28;1300;-75
2022/05/17 00:39:20;;;;;;;;;;;;;;;21.35;27.80;98048.41;5034032;28;1021;-75
2022/05/17 00:41:46;;;;;;;;;;;;;;;21.33;27.47;98051.66;5036230;28;1353;-75
2022/05/17 00:47:28;;;;;;;;;;;;;;;21.96;26.83;98041.13;4956049;29;1012;-75
2022/05/17 00:50:11;;;;;;;;;;;;;;;21.79;27.06;98044.00;4955665;29;1993;-75
2022/05/17 00:52:50;;;;;;;;;;;;;;;21.66;27.31;98040.31;4955643;29;913;-75
2022/05/17 00:55:30;;;;;;;;;;;;;;;21.56;27.44;98041.41;4917493;29;988;-75
2022/05/17 00:58:09;;;;;;;;;;;;;;;21.36;27.47;98038.66;4917656;29;1033;-75
2022/05/17 01:00:40;;;;;;;;;;;;;;;21.38;27.75;98035.38;4917630;29;983;-76
2022/05/17 01:03:08;;;;;;;;;;;;;;;21.98;26.81;98028.13;4917772;29;1046;-76
2022/05/17 01:05:34;;;;;;;;;;;;;;;22.12;26.79;98037.47;4917260;29;970;-75
2022/05/17 01:08:00;;;;;;;;;;;;;;;21.78;27.16;98031.09;4917630;29;1903;-75
2022/05/17 01:10:26;;;;;;;;;;;;;;;21.60;27.11;98030.75;4917101;29;1506;-75
2022/05/17 01:15:35;;;;;;;;;;;;;;;21.54;27.20;98033.31;4917469;29;969;-76
2022/05/17 01:18:01;;;;;;;;;;;;;;;21.33;27.87;98029.00;4917652;29;1022;-75
2022/05/17 01:20:27;;;;;;;;;;;;;;;21.58;27.49;98028.38;4917460;29;1042;-75
2022/05/17 01:22:52;;;;;;;;;;;;;;;21.91;26.95;98024.69;4959842;28;1021;-75
2022/05/17 01:25:18;;;;;;;;;;;;;;;22.22;26.17;98030.72;4998364;28;1055;-75
2022/05/17 01:28:04;;;;;;;;;;;;;;;21.81;26.94;98029.38;5033694;28;1969;-75
2022/05/17 01:30:30;;;;;;;;;;;;;;;21.65;26.92;98013.22;5035124;28;1030;-76
2022/05/17 01:32:55;;;;;;;;;;;;;;;21.37;27.43;98019.63;5035742;28;950;-75
2022/05/17 01:35:21;;;;;;;;;;;;;;;21.43;27.35;98013.00;5036011;28;929;-75
2022/05/17 01:37:50;;;;;;;;;;;;;;;21.36;27.38;98004.69;5035890;28;950;-75
2022/05/17 01:40:15;;;;;;;;;;;;;;;21.20;27.81;98018.81;5035818;28;1051;-75
2022/05/17 01:42:41;;;;;;;;;;;;;;;21.54;27.57;98013.50;5035745;28;1131;-75
2022/05/17 01:45:06;;;;;;;;;;;;;;;22.04;26.48;98008.53;4993854;28;1085;-75
2022/05/17 01:47:32;;;;;;;;;;;;;;;21.89;26.60;98001.69;4994299;28;924;-75
2022/05/17 01:49:57;;;;;;;;;;;;;;;21.57;27.38;98006.19;4997830;28;1931;-76
2022/05/17 01:52:23;;;;;;;;;;;;;;;21.65;27.13;97999.06;5014245;28;1077;-75
2022/05/17 01:54:48;;;;;;;;;;;;;;;21.43;27.58;97998.03;4997361;28;1340;-75
2022/05/17 01:57:14;;;;;;;;;;;;;;;21.43;27.42;98000.88;4997684;28;1002;-75
2022/05/17 01:59:40;;;;;;;;;;;;;;;21.45;27.45;97989.91;4997717;28;1001;-75
2022/05/17 02:02:06;;;;;;;;;;;;;;;21.85;26.66;98001.75;4997731;28;977;-75
2022/05/17 02:04:31;;;;;;;;;;;;;;;21.96;26.70;97990.13;4997557;28;927;-75
2022/05/17 02:06:57;;;;;;;;;;;;;;;21.77;26.91;97989.84;4997722;28;1027;-75
2022/05/17 02:09:23;;;;;;;;;;;;;;;21.67;26.90;97996.59;4997416;28;1910;-75
2022/05/17 02:11:48;;;;;;;;;;;;;;;21.46;27.11;97992.31;4997698;28;1044;-75
2022/05/17 02:14:14;;;;;;;;;;;;;;;21.33;27.44;97992.22;4997346;28;1068;-75
2022/05/17 02:16:39;;;;;;;;;;;;;;;21.74;26.73;97987.91;5028028;28;935;-75
2022/05/17 02:19:06;;;;;;;;;;;;;;;21.99;26.50;97990.03;5038570;28;1016;-76
2022/05/17 02:21:33;;;;;;;;;;;;;;;21.73;26.64;97980.66;5038852;28;917;-75
2022/05/17 02:23:58;;;;;;;;;;;;;;;21.54;26.97;97981.56;5038846;28;1147;-75
2022/05/17 02:26:23;;;;;;;;;;;;;;;21.35;27.14;97980.47;5039371;28;1012;-75
2022/05/17 02:28:49;;;;;;;;;;;;;;;21.31;27.26;97979.75;5038905;28;1905;-75
2022/05/17 02:31:15;;;;;;;;;;;;;;;21.21;27.71;97981.59;5039295;28;1007;-76
2022/05/17 02:33:41;;;;;;;;;;;;;;;21.44;27.41;97976.97;5038315;28;1162;-75
2022/05/17 02:36:06;;;;;;;;;;;;;;;21.78;26.88;97977.28;5038606;28;959;-75
2022/05/17 02:38:32;;;;;;;;;;;;;;;21.93;26.46;97979.72;5038605;28;1032;-75
2022/05/17 02:40:57;;;;;;;;;;;;;;;21.63;26.78;97984.56;5036269;28;1718;-75
2022/05/17 02:43:22;;;;;;;;;;;;;;;21.49;26.78;97971.56;5038480;28;940;-75
2022/05/17 02:45:48;;;;;;;;;;;;;;;21.30;27.48;97975.34;5038752;28;939;-76
2022/05/17 02:48:13;;;;;;;;;;;;;;;21.59;26.98;97972.53;5038548;28;1907;-75
2022/05/17 02:50:39;;;;;;;;;;;;;;;21.82;26.70;97968.69;5038822;28;997;-76
2022/05/17 02:53:04;;;;;;;;;;;;;;;22.02;26.31;97960.00;5037895;28;918;-75
2022/05/17 02:55:31;;;;;;;;;;;;;;;21.64;26.60;97969.16;5038618;28;891;-75
2022/05/17 02:57:57;;;;;;;;;;;;;;;21.49;27.17;97967.97;5036012;28;1009;-75
2022/05/17 03:00:24;;;;;;;;;;;;;;;21.44;26.89;97968.50;5037242;28;926;-75
2022/05/17 03:02:50;;;;;;;;;;;;;;;21.23;27.39;97972.66;5020106;28;1052;-75
2022/05/17 03:05:16;;;;;;;;;;;;;;;21.76;26.73;97970.44;5038346;28;877;-75
2022/05/17 03:07:41;;;;;;;;;;;;;;;22.01;26.40;97975.41;5053636;28;936;-76
2022/05/17 03:10:07;;;;;;;;;;;;;;;21.95;26.24;97977.22;4996131;28;1906;-75
2022/05/17 03:12:32;;;;;;;;;;;;;;;21.54;26.77;97970.25;4996435;28;1000;-75
2022/05/17 03:14:59;;;;;;;;;;;;;;;21.41;26.92;97969.41;4996262;28;1077;-75
2022/05/17 03:17:25;;;;;;;;;;;;;;;21.32;27.04;97975.69;4995956;28;1052;-75
2022/05/17 03:19:53;;;;;;;;;;;;;;;21.79;26.55;97975.25;4996232;28;1018;-75
2022/05/17 03:22:18;;;;;;;;;;;;;;;21.95;26.51;97971.56;4963567;28;1019;-75
2022/05/17 03:24:44;;;;;;;;;;;;;;;22.21;25.98;97976.06;4995798;28;994;-75
2022/05/17 03:27:09;;;;;;;;;;;;;;;21.73;26.34;97977.81;4996224;28;1033;-75
2022/05/17 03:29:34;;;;;;;;;;;;;;;21.46;26.84;97974.53;4995727;28;1966;-76
2022/05/17 03:32:00;;;;;;;;;;;;;;;21.54;26.74;97982.38;4995639;28;1016;-75
2022/05/17 03:34:26;;;;;;;;;;;;;;;21.53;26.87;97979.97;4996080;28;897;-75
2022/05/17 03:36:51;;;;;;;;;;;;;;;21.67;26.66;97985.28;4963071;28;978;-75
2022/05/17 03:39:17;;;;;;;;;;;;;;;22.04;26.06;97977.38;4995930;28;1024;-75
2022/05/17 03:41:42;;;;;;;;;;;;;;;22.06;26.20;97983.38;4977912;28;1099;-75
2022/05/17 03:44:08;;;;;;;;;;;;;;;21.73;26.80;97982.69;5017821;28;926;-75
2022/05/17 03:46:33;;;;;;;;;;;;;;;21.49;26.88;97990.59;5017354;28;918;-75
2022/05/17 03:49:01;;;;;;;;;;;;;;;21.45;27.02;97989.91;5017564;28;2035;-75
2022/05/17 03:51:27;;;;;;;;;;;;;;;21.47;27.16;97981.78;5017414;28;941;-75
2022/05/17 03:53:53;;;;;;;;;;;;;;;21.90;26.59;97991.94;5017425;28;957;-75
2022/05/17 03:56:19;;;;;;;;;;;;;;;22.00;26.00;97990.84;5017546;28;1027;-75
2022/05/17 03:58:44;;;;;;;;;;;;;;;21.52;27.01;97995.38;5017116;28;853;-75
2022/05/17 04:01:10;;;;;;;;;;;;;;;21.43;27.25;97995.22;5017503;28;971;-75
2022/05/17 04:03:35;;;;;;;;;;;;;;;21.26;27.20;98000.06;5017147;28;886;-75
2022/05/17 04:06:01;;;;;;;;;;;;;;;21.32;27.26;97996.28;5016850;28;1031;-75
2022/05/17 04:08:26;;;;;;;;;;;;;;;21.32;27.48;97999.13;4998572;28;1910;-75
2022/05/17 04:10:52;;;;;;;;;;;;;;;21.78;26.53;97999.13;5017230;28;931;-75
2022/05/17 04:13:17;;;;;;;;;;;;;;;22.12;26.05;97994.97;5016467;28;904;-75
2022/05/17 04:15:43;;;;;;;;;;;;;;;21.67;26.88;97992.97;5016735;28;894;-75
2022/05/17 04:18:08;;;;;;;;;;;;;;;21.49;26.91;97999.09;5017173;28;980;-75
2022/05/17 04:20:34;;;;;;;;;;;;;;;21.40;27.22;98002.56;5016616;28;929;-75
2022/05/17 04:22:59;;;;;;;;;;;;;;;21.29;27.36;97999.97;5015617;28;1059;-75
2022/05/17 04:25:25;;;;;;;;;;;;;;;21.30;27.61;98001.59;5016776;28;1447;-75
2022/05/17 04:27:51;;;;;;;;;;;;;;;21.37;27.31;98005.50;5016903;28;1902;-75
2022/05/17 04:30:17;;;;;;;;;;;;;;;21.70;26.85;98007.03;5016662;28;965;-75
2022/05/17 04:32:44;;;;;;;;;;;;;;;21.94;26.40;98016.09;5016637;28;920;-75
2022/05/17 04:35:10;;;;;;;;;;;;;;;21.98;26.54;98011.13;4994324;28;973;-75
2022/05/17 04:37:36;;;;;;;;;;;;;;;21.51;27.13;98010.78;4994927;28;993;-76
2022/05/17 04:40:03;;;;;;;;;;;;;;;21.47;27.08;98010.09;4994900;28;1075;-75
2022/05/17 04:42:28;;;;;;;;;;;;;;;21.54;27.35;98009.88;4994328;28;1212;-75
2022/05/17 04:44:54;;;;;;;;;;;;;;;21.53;27.25;98011.13;4994728;28;952;-76
2022/05/17 04:47:20;;;;;;;;;;;;;;;21.30;27.61;98012.94;4994712;28;1050;-75
2022/05/17 04:49:46;;;;;;;;;;;;;;;21.61;27.16;98015.38;4994595;28;2552;-75
2022/05/17 04:52:11;;;;;;;;;;;;;;;21.95;26.87;98014.03;4994319;28;1082;-75
2022/05/17 04:54:37;;;;;;;;;;;;;;;22.20;26.13;98011.34;4994645;28;995;-75
2022/05/17 04:57:04;;;;;;;;;;;;;;;21.93;26.34;98019.38;4994239;28;967;-75
2022/05/17 04:59:29;;;;;;;;;;;;;;;21.55;27.39;98019.97;4994390;28;921;-76
2022/05/17 05:01:55;;;;;;;;;;;;;;;21.41;27.29;98017.53;4994524;28;918;-75
2022/05/17 05:04:20;;;;;;;;;;;;;;;21.42;27.52;98008.56;4994459;28;979;-75
2022/05/17 05:06:46;;;;;;;;;;;;;;;21.52;27.31;98009.53;4988414;28;991;-75
2022/05/17 05:09:11;;;;;;;;;;;;;;;21.68;27.10;98012.34;5016231;28;1907;-75
2022/05/17 05:11:37;;;;;;;;;;;;;;;22.18;26.39;98008.16;5016410;28;969;-76
2022/05/17 05:14:03;;;;;;;;;;;;;;;22.05;26.42;98010.13;5016006;28;987;-75
2022/05/17 05:16:28;;;;;;;;;;;;;;;21.60;27.13;98005.28;4981951;28;1041;-76
2022/05/17 05:18:54;;;;;;;;;;;;;;;21.46;27.72;98000.78;5016037;28;1197;-76
2022/05/17 05:21:19;;;;;;;;;;;;;;;21.58;27.18;98002.09;5016047;28;1202;-75
2022/05/17 05:23:45;;;;;;;;;;;;;;;21.55;27.17;98005.81;5017968;28;1214;-75
2022/05/17 05:26:11;;;;;;;;;;;;;;;21.84;27.04;98006.63;5020026;28;1095;-75
2022/05/17 05:28:37;;;;;;;;;;;;;;;22.21;26.68;98004.41;5019207;28;1919;-75
2022/05/17 05:31:03;;;;;;;;;;;;;;;21.65;27.01;98010.38;5019441;28;1254;-76
2022/05/17 05:33:30;;;;;;;;;;;;;;;21.66;27.56;98011.19;5019601;28;1316;-75
2022/05/17 05:35:56;;;;;;;;;;;;;;;21.57;27.36;98009.81;5018211;28;1265;-75
2022/05/17 05:38:22;;;;;;;;;;;;;;;21.50;27.73;98007.16;5019427;28;1258;-75
2022/05/17 05:40:47;;;;;;;;;;;;;;;21.46;27.54;97997.16;5019860;28;1312;-75
2022/05/17 05:43:13;;;;;;;;;;;;;;;21.36;27.78;98001.06;5039268;28;1215;-75
2022/05/17 05:45:38;;;;;;;;;;;;;;;21.35;27.94;98002.28;5040087;28;874;-75
2022/05/17 05:48:04;;;;;;;;;;;;;;;21.68;27.64;98006.69;5039062;28;1906;-75
2022/05/17 05:50:29;;;;;;;;;;;;;;;21.89;27.06;98007.34;5039418;28;1189;-75
2022/05/17 05:52:59;;;;;;;;;;;;;;;21.82;27.03;98000.63;5039582;28;993;-75
2022/05/17 05:55:24;;;;;;;;;;;;;;;21.64;27.55;98003.16;5039522;28;970;-75
2022/05/17 05:57:50;;;;;;;;;;;;;;;21.49;27.76;98004.75;5039616;28;1012;-75
2022/05/17 06:00:16;;;;;;;;;;;;;;;21.51;27.82;97999.47;5039419;28;925;-75
2022/05/17 06:02:41;;;;;;;;;;;;;;;21.45;28.26;98001.22;5020793;28;937;-75
2022/05/17 06:05:07;;;;;;;;;;;;;;;21.36;27.96;98013.19;5039252;28;866;-75
2022/05/17 06:07:34;;;;;;;;;;;;;;;21.33;28.33;98003.53;5039207;28;917;-75
2022/05/17 06:09:59;;;;;;;;;;;;;;;21.45;27.99;98006.88;5039150;28;1973;-75
2022/05/17 06:12:24;;;;;;;;;;;;;;;21.54;27.94;98004.22;5039122;28;925;-75
2022/05/17 06:14:51;;;;;;;;;;;;;;;21.92;27.22;98014.97;5039286;28;1027;-75
2022/05/17 06:17:17;;;;;;;;;;;;;;;22.17;26.92;98017.09;5039050;28;1044;-75
2022/05/17 06:19:42;;;;;;;;;;;;;;;21.74;27.68;98018.25;5038930;28;781;-75
2022/05/17 06:22:09;;;;;;;;;;;;;;;21.53;28.25;98030.94;5038915;28;894;-75
2022/05/17 06:24:35;;;;;;;;;;;;;;;21.48;27.90;98023.78;5038531;28;897;-75
2022/05/17 06:27:01;;;;;;;;;;;;;;;21.47;27.98;98015.75;5038848;28;901;-75
2022/05/17 06:29:26;;;;;;;;;;;;;;;21.30;28.41;98027.06;5020207;28;1907;-75
2022/05/17 06:31:52;;;;;;;;;;;;;;;21.25;28.36;98027.56;5038509;28;900;-75
2022/05/17 06:34:17;;;;;;;;;;;;;;;21.45;28.09;98024.69;5037684;28;856;-76
2022/05/17 06:36:42;;;;;;;;;;;;;;;21.90;27.74;98020.25;5038578;28;937;-75
2022/05/17 06:39:08;;;;;;;;;;;;;;;22.24;26.90;98023.38;5038664;28;880;-75
2022/05/17 06:41:35;;;;;;;;;;;;;;;21.67;27.58;98018.47;5038143;28;1057;-75
2022/05/17 06:44:01;;;;;;;;;;;;;;;21.49;28.15;98018.91;5038587;28;920;-75
2022/05/17 06:46:26;;;;;;;;;;;;;;;21.56;27.95;98025.19;5038312;28;939;-74
2022/05/17 06:48:51;;;;;;;;;;;;;;;21.63;28.04;98026.25;5038003;28;1898;-75
2022/05/17 06:51:17;;;;;;;;;;;;;;;21.44;28.25;98016.63;5038485;28;920;-75
2022/05/17 06:53:43;;;;;;;;;;;;;;;21.52;27.96;98023.69;5038322;28;892;-75
2022/05/17 06:56:08;;;;;;;;;;;;;;;21.42;28.41;98024.78;5038350;28;1057;-75
2022/05/17 06:58:34;;;;;;;;;;;;;;;21.40;28.33;98021.56;5036042;28;1009;-75
2022/05/17 07:00:59;;;;;;;;;;;;;;;21.49;28.37;98018.91;5037912;28;906;-75
2022/05/17 07:03:25;;;;;;;;;;;;;;;21.93;27.45;98020.16;5038383;28;981;-75
2022/05/17 07:05:51;;;;;;;;;;;;;;;22.12;27.11;98026.16;5038181;28;970;-75
2022/05/17 07:08:17;;;;;;;;;;;;;;;21.63;27.90;98018.53;5038122;28;1902;-75
2022/05/17 07:13:26;;;;;;;;;;;;;;;21.37;28.54;98025.31;5038285;28;904;-75
2022/05/17 07:15:53;;;;;;;;;;;;;;;21.40;28.46;98015.91;5035917;28;990;-75
2022/05/17 07:18:23;;;;;;;;;;;;;;;21.41;28.25;98023.19;5037880;28;969;-75
2022/05/17 07:20:49;;;;;;;;;;;;;;;21.38;28.43;98018.41;5038105;28;917;-75
2022/05/17 07:23:15;;;;;;;;;;;;;;;21.43;28.20;98015.03;5035099;28;1034;-75
2022/05/17 07:25:41;;;;;;;;;;;;;;;21.24;28.57;98026.00;5035165;28;1076;-75
2022/05/17 07:28:06;;;;;;;;;;;;;;;21.68;28.13;98017.22;5035336;28;1898;-75
2022/05/17 07:30:32;;;;;;;;;;;;;;;22.02;27.55;98022.34;5035304;28;1107;-75
2022/05/17 07:32:57;;;;;;;;;;;;;;;21.96;27.98;98018.47;5035180;28;980;-75
2022/05/17 07:35:26;;;;;;;;;;;;;;;21.73;28.00;98016.69;5035006;28;1001;-75
2022/05/17 07:37:51;;;;;;;;;;;;;;;21.71;28.10;98025.63;5034987;28;1156;-75
2022/05/17 07:40:17;;;;;;;;;;;;;;;21.54;28.56;98021.22;5035314;28;1223;-75
2022/05/17 07:42:43;;;;;;;;;;;;;;;21.40;28.84;98021.56;5034944;28;1118;-75
2022/05/17 07:45:09;;;;;;;;;;;;;;;21.37;28.95;98030.97;5035362;28;1114;-75
2022/05/17 07:47:34;;;;;;;;;;;;;;;21.33;28.95;98028.22;5034894;28;955;-75
2022/05/17 07:50:00;;;;;;;;;;;;;;;21.40;29.05;98027.22;5035133;28;1995;-75
2022/05/17 07:52:27;;;;;;;;;;;;;;;21.47;28.52;98027.84;5035450;28;1107;-75
2022/05/17 07:54:53;;;;;;;;;;;;;;;21.43;29.05;98026.34;5036731;28;958;-75
2022/05/17 07:57:19;;;;;;;;;;;;;;;21.68;28.84;98032.16;5037394;28;945;-75
2022/05/17 07:59:45;;;;;;;;;;;;;;;22.04;28.15;98036.88;5037649;28;917;-75
2022/05/17 08:02:11;;;;;;;;;;;;;;;21.98;27.91;98033.78;5037246;28;922;-75
2022/05/17 08:04:36;;;;;;;;;;;;;;;21.73;28.56;98034.47;4995429;28;1110;-75
2022/05/17 08:07:02;;;;;;;;;;;;;;;21.56;28.80;98030.88;4995603;28;928;-75
2022/05/17 08:09:27;;;;;;;;;;;;;;;21.57;28.74;98026.00;4946962;28;2013;-75
2022/05/17 08:11:53;;;;;;;;;;;;;;;21.47;28.98;98024.22;4995717;28;1007;-75
2022/05/17 08:14:19;;;;;;;;;;;;;;;21.43;28.88;98024.31;5011475;28;892;-75
2022/05/17 08:16:45;;;;;;;;;;;;;;;21.52;28.92;98023.69;4995631;28;1039;-74
2022/05/17 08:19:10;;;;;;;;;;;;;;;21.53;28.68;98019.63;4995069;28;935;-74
2022/05/17 08:21:36;;;;;;;;;;;;;;;21.31;29.24;98017.34;4995203;28;1058;-75
2022/05/17 08:24:01;;;;;;;;;;;;;;;21.33;29.09;98017.69;4995387;28;960;-75
2022/05/17 08:29:11;;;;;;;;;;;;;;;21.94;28.28;98021.75;4954168;28;1980;-75
2022/05/17 08:31:36;;;;;;;;;;;;;;;22.15;28.04;98011.88;4995275;28;1063;-75
2022/05/17 08:34:02;;;;;;;;;;;;;;;21.71;28.61;98008.63;4995251;28;1039;-75
2022/05/17 08:36:27;;;;;;;;;;;;;;;21.56;29.14;98013.09;5030742;28;1067;-75
2022/05/17 08:38:53;;;;;;;;;;;;;;;21.64;28.72;98008.81;5036690;28;1041;-75
2022/05/17 08:41:37;;;;;;;;;;;;;;;21.42;29.20;98002.13;5036761;28;1084;-75
2022/05/17 08:44:12;;;;;;;;;;;;;;;21.43;29.17;98003.72;5036482;28;914;-75
2022/05/17 08:46:56;;;;;;;;;;;;;;;21.47;29.43;98004.41;5036178;28;956;-75
2022/05/17 08:49:25;;;;;;;;;;;;;;;21.38;29.31;98001.41;5036148;28;1902;-75
2022/05/17 08:51:55;;;;;;;;;;;;;;;21.47;29.03;98002.38;5014410;28;1049;-75
2022/05/17 08:54:23;;;;;;;;;;;;;;;21.50;29.26;98003.50;5014177;28;1028;-75
2022/05/17 08:56:51;;;;;;;;;;;;;;;21.47;29.10;98010.09;5014062;28;1095;-75
2022/05/17 08:59:18;;;;;;;;;;;;;;;21.45;29.28;98007.69;5013721;28;1035;-75
2022/05/17 09:01:45;;;;;;;;;;;;;;;21.86;28.90;98009.00;5014497;28;886;-75
2022/05/17 09:04:14;;;;;;;;;;;;;;;22.03;28.45;98007.75;5013947;28;1175;-75
2022/05/17 09:06:48;;;;;;;;;;;;;;;22.15;28.31;98008.25;5014359;28;891;-75
2022/05/17 09:09:39;;;;;;;;;;;;;;;21.97;28.71;98005.91;5014485;28;1899;-75
2022/05/17 09:12:23;;;;;;;;;;;;;;;21.82;28.73;98005.50;4975289;28;1070;-75
2022/05/17 09:14:48;;;;;;;;;;;;;;;21.58;29.41;97996.44;4958853;28;1000;-75
2022/05/17 09:17:15;;;;;;;;;;;;;;;21.55;29.33;98000.16;4975170;28;906;-75
2022/05/17 09:19:41;;;;;;;;;;;;;;;21.67;28.92;98002.25;4975524;28;971;-75
2022/05/17 09:22:06;;;;;;;;;;;;;;;21.68;28.98;97995.34;4951725;29;1005;-75
2022/05/17 09:24:39;;;;;;;;;;;;;;;21.59;29.13;98000.84;4936378;29;993;-75
2022/05/17 09:27:06;;;;;;;;;;;;;;;21.71;28.80;97997.31;4936425;29;1150;-75
2022/05/17 09:29:35;;;;;;;;;;;;;;;21.55;29.16;97983.16;4936149;29;1906;-75
2022/05/17 09:32:01;;;;;;;;;;;;;;;21.50;29.29;97992.19;4936900;29;891;-75
2022/05/17 09:34:28;;;;;;;;;;;;;;;21.41;29.42;97995.66;4917184;29;985;-76
2022/05/17 09:36:53;;;;;;;;;;;;;;;21.40;29.67;97987.59;4917648;29;1149;-75
2022/05/17 09:39:19;;;;;;;;;;;;;;;21.44;29.35;97993.97;4882781;29;949;-75
2022/05/17 09:41:45;;;;;;;;;;;;;;;21.55;29.53;97988.81;4898241;29;1286;-75
2022/05/17 09:44:12;;;;;;;;;;;;;;;21.46;29.32;97985.84;4898509;29;903;-75
2022/05/17 09:46:44;;;;;;;;;;;;;;;21.36;29.76;97981.25;4879623;29;928;-75
2022/05/17 09:54:45;;;;;;;;;;;;;;;21.97;28.94;97980.41;4917472;29;943;-76
2022/05/17 09:57:13;;;;;;;;;;;;;;;21.84;28.81;97983.97;4898025;29;1241;-75
2022/05/17 09:59:39;;;;;;;;;;;;;;;21.58;29.60;97971.75;4897726;29;1347;-76
2022/05/17 10:02:05;;;;;;;;;;;;;;;21.63;29.38;97970.41;4882154;29;1250;-75
2022/05/17 10:04:30;;;;;;;;;;;;;;;21.62;29.33;97977.31;4862535;29;1357;-75
2022/05/17 10:06:56;;;;;;;;;;;;;;;21.58;29.42;97970.94;4879102;29;1241;-75
2022/05/17 10:09:28;;;;;;;;;;;;;;;21.35;30.02;97968.31;4898910;29;1903;-75
2022/05/17 10:12:04;;;;;;;;;;;;;;;21.40;29.73;97964.97;4898966;29;1216;-75
2022/05/17 10:14:31;;;;;;;;;;;;;;;21.40;29.76;97967.78;4900655;29;2158;-75
2022/05/17 10:17:00;;;;;;;;;;;;;;;21.47;29.85;97964.78;4909050;29;1323;-75
2022/05/17 10:19:26;;;;;;;;;;;;;;;21.44;29.75;97965.66;4940879;28;1352;-75
2022/05/17 10:21:54;;;;;;;;;;;;;;;21.39;29.84;97963.38;4986370;28;1265;-75
2022/05/17 10:24:41;;;;;;;;;;;;;;;21.55;29.67;97966.16;4957998;28;1646;-75
2022/05/17 10:27:25;;;;;;;;;;;;;;;21.62;29.55;97963.16;4946690;29;1394;-75
2022/05/17 10:29:51;;;;;;;;;;;;;;;22.07;28.94;97963.09;4938852;29;1903;-75
2022/05/17 10:32:19;;;;;;;;;;;;;;;21.92;29.12;97961.94;4938645;29;1438;-75
2022/05/17 10:34:51;;;;;;;;;;;;;;;21.54;29.87;97953.25;4938535;29;1307;-75
2022/05/17 10:37:21;;;;;;;;;;;;;;;21.55;29.77;97950.00;4930355;29;1184;-75
2022/05/17 10:39:51;;;;;;;;;;;;;;;21.50;29.87;97947.72;4914871;29;1275;-75
2022/05/17 10:42:17;;;;;;;;;;;;;;;21.52;29.81;97945.22;4888456;29;1387;-75
2022/05/17 10:44:51;;;;;;;;;;;;;;;21.63;29.60;97950.59;4885545;29;1251;-75
2022/05/17 10:47:19;;;;;;;;;;;;;;;21.56;29.40;97928.16;4893331;29;1367;-75
2022/05/17 10:50:04;;;;;;;;;;;;;;;21.51;29.71;97943.63;4909854;29;1985;-75
2022/05/17 10:52:50;;;;;;;;;;;;;;;21.49;29.75;97931.16;4908965;29;1314;-75
2022/05/17 10:55:17;;;;;;;;;;;;;;;21.57;29.57;97919.19;4910822;29;1227;-75
2022/05/17 10:57:45;;;;;;;;;;;;;;;21.56;29.57;97916.81;4909140;29;1291;-75
2022/05/17 11:00:14;;;;;;;;;;;;;;;21.36;29.93;97924.66;4894425;29;1351;-75
2022/05/17 11:02:46;;;;;;;;;;;;;;;21.50;29.67;97915.75;4890219;29;1091;-75
2022/05/17 11:05:18;;;;;;;;;;;;;;;21.38;29.90;97914.47;4890651;29;1343;-75
2022/05/17 11:07:43;;;;;;;;;;;;;;;21.46;29.71;97906.59;4901191;29;1237;-75
2022/05/17 11:10:22;;;;;;;;;;;;;;;21.45;29.84;97904.97;4929595;28;1995;-75
2022/05/17 11:12:49;;;;;;;;;;;;;;;22.08;28.74;97912.91;4975280;28;1188;-75
2022/05/17 11:15:35;;;;;;;;;;;;;;;21.81;29.23;97911.25;4956805;29;1291;-76
2022/05/17 11:18:07;;;;;;;;;;;;;;;21.72;29.20;97907.47;4957577;29;1022;-75
2022/05/17 11:20:45;;;;;;;;;;;;;;;21.64;29.50;97906.88;4937914;29;1001;-75
2022/05/17 11:23:20;;;;;;;;;;;;;;;21.60;29.44;97903.34;4957388;29;953;-75
2022/05/17 11:25:55;;;;;;;;;;;;;;;21.60;29.35;97900.50;4957443;29;1011;-75
2022/05/17 11:28:21;;;;;;;;;;;;;;;21.48;29.53;97898.44;4957645;29;1971;-75
2022/05/17 11:30:48;;;;;;;;;;;;;;;21.50;29.69;97896.75;4963500;28;991;-75
2022/05/17 11:33:22;;;;;;;;;;;;;;;21.39;29.66;97895.44;4970511;28;988;-75
2022/05/17 11:35:53;;;;;;;;;;;;;;;21.41;29.72;97888.09;4957199;29;1027;-75
2022/05/17 11:38:38;;;;;;;;;;;;;;;21.58;29.65;97888.84;4918773;29;1043;-75
2022/05/17 11:41:07;;;;;;;;;;;;;;;21.72;29.43;97891.28;4900094;29;1416;-75
2022/05/17 11:43:40;;;;;;;;;;;;;;;21.58;29.27;97881.16;4881216;29;1151;-75
2022/05/17 11:46:05;;;;;;;;;;;;;;;21.61;29.51;97887.97;4862748;29;1131;-75
2022/05/17 11:48:43;;;;;;;;;;;;;;;21.82;29.50;97881.69;4862480;29;1904;-75
2022/05/17 11:51:09;;;;;;;;;;;;;;;21.89;29.23;97877.03;4856460;29;972;-76
2022/05/17 11:53:47;;;;;;;;;;;;;;;21.78;29.26;97877.34;4821266;29;1093;-75
2022/05/17 11:56:32;;;;;;;;;;;;;;;21.64;29.70;97872.88;4807631;29;973;-76
2022/05/17 11:58:58;;;;;;;;;;;;;;;21.86;29.04;97873.06;4807805;29;1037;-76
2022/05/17 12:01:27;;;;;;;;;;;;;;;21.72;29.26;97871.44;4807627;29;1023;-74
2022/05/17 12:04:00;;;;;;;;;;;;;;;21.61;29.44;97865.31;4807732;29;981;-75
2022/05/17 12:06:39;;;;;;;;;;;;;;;21.49;29.59;97854.72;4822562;29;1037;-75
2022/05/17 12:09:12;;;;;;;;;;;;;;;21.47;29.88;97857.22;4832662;29;1903;-75
2022/05/17 12:11:42;;;;;;;;;;;;;;;21.56;29.58;97852.50;4849319;29;958;-76
2022/05/17 12:14:26;;;;;;;;;;;;;;;21.61;29.53;97848.31;4862662;29;1007;-75
2022/05/17 12:16:54;;;;;;;;;;;;;;;21.52;29.73;97862.34;4832415;29;1010;-75
2022/05/17 12:19:23;;;;;;;;;;;;;;;21.47;30.00;97852.34;4826301;29;1104;-74
2022/05/17 12:22:00;;;;;;;;;;;;;;;21.56;29.43;97848.88;4825789;29;1028;-75
2022/05/17 12:24:25;;;;;;;;;;;;;;;21.56;29.66;97837.53;4833330;29;1073;-76
2022/05/17 12:27:04;;;;;;;;;;;;;;;21.50;29.46;97845.81;4876163;29;1026;-75
2022/05/17 12:32:17;;;;;;;;;;;;;;;21.55;29.40;97831.09;4880043;29;1013;-75
2022/05/17 12:34:43;;;;;;;;;;;;;;;21.82;29.51;97833.53;4865118;29;994;-75
2022/05/17 12:37:12;;;;;;;;;;;;;;;22.04;28.98;97833.66;4878054;29;1102;-75
2022/05/17 12:45:16;;;;;;;;;;;;;;;21.70;29.54;97825.78;4918219;29;1045;-75
2022/05/17 12:47:43;;;;;;;;;;;;;;;21.66;29.36;97825.13;4918123;29;1075;-76
2022/05/17 12:50:12;;;;;;;;;;;;;;;21.54;29.76;97817.38;4899075;29;1990;-75
2022/05/17 12:52:39;;;;;;;;;;;;;;;21.57;29.60;97816.47;4880377;29;957;-75
2022/05/17 12:55:07;;;;;;;;;;;;;;;21.50;29.64;97811.00;4868518;29;1315;-75
2022/05/17 12:57:33;;;;;;;;;;;;;;;21.33;30.02;97813.91;4880194;29;1481;-75
2022/05/17 13:00:18;;;;;;;;;;;;;;;21.65;29.33;97800.84;4867234;29;960;-75
2022/05/17 13:02:45;;;;;;;;;;;;;;;21.53;30.02;97801.63;4880032;29;1461;-75
2022/05/17 13:05:23;;;;;;;;;;;;;;;21.51;29.64;97801.31;4879923;29;1036;-75
2022/05/17 13:07:57;;;;;;;;;;;;;;;21.63;29.44;97791.25;4893431;29;1005;-75
2022/05/17 13:10:23;;;;;;;;;;;;;;;21.54;29.43;97789.06;4898835;29;1974;-74
2022/05/17 13:12:49;;;;;;;;;;;;;;;21.50;29.76;97797.69;4898910;29;932;-75
2022/05/17 13:15:15;;;;;;;;;;;;;;;21.38;29.62;97786.31;4898556;29;973;-75
2022/05/17 13:17:41;;;;;;;;;;;;;;;21.42;29.67;97787.78;4898523;29;945;-75
2022/05/17 13:20:20;;;;;;;;;;;;;;;21.38;29.82;97786.31;4898971;29;1020;-75
2022/05/17 13:22:46;;;;;;;;;;;;;;;21.81;29.74;97792.28;4898552;29;1105;-75
2022/05/17 13:25:18;;;;;;;;;;;;;;;22.04;29.09;97781.88;4898651;29;991;-75
2022/05/17 13:27:44;;;;;;;;;;;;;;;21.72;29.70;97780.84;4898765;29;992;-75